Terminal Aerodrome Forecast
Issued by NWS Charleston, WV

Current Version | Previous Version | Text Only | Print | Product List | Glossary Off
Versions: 1 2 3 4 5 6 7 8 9 10 11 12 13 14 15 16 17 18 19 20 21 22 23 24 25 26 27

072
FTUS41 KRLX 010914 AAB
TAFBKW
TAF AMD
KBKW 010914Z 0109/0206 15010KT 6SM -SHRA BR SCT008 OVC015
     FM011100 18008KT 4SM SHRA OVC015
     FM011400 21008KT P6SM SHRA BKN035
     FM011600 22008KT P6SM SHRA VCTS BKN040CB=

USA.gov is the U.S. government's official web portal to all federal, state and local government web resources and services.